Time;durP1;ratioP1;P1;durP2;ratioP2;P2;SDS_P1;SDS_P2;PMS_P1;PMS_P2;Temp;Humidity;BMP_temperature;BMP_pressure;BME280_temperature;BME280_humidity;BME280_pressure;Samples;Min_cycle;Max_cycle;Signal;HPM_P1;HPM_P2
2023/03/28 00:01:45;;;;;;;1999.90;999.90;;;2.50;99.90;;;;;;4937242;29;20047;-81
2023/03/28 00:04:11;;;;;;;1999.90;999.90;;;2.90;99.90;;;;;;4952256;28;20039;-84
2023/03/28 00:06:38;;;;;;;1999.90;999.90;;;;;;;;;;4931364;29;20064;-81
2023/03/28 00:09:04;;;;;;;1999.90;999.90;;;2.60;1.00;;;;;;4925933;29;20080;-83
2023/03/28 00:11:30;;;;;;;1999.90;999.90;;;1.60;1.00;;;;;;4931791;29;20060;-86
2023/03/28 00:14:01;;;;;;;1999.90;999.90;;;2.50;99.90;;;;;;4934329;29;20504;-81
2023/03/28 00:16:32;;;;;;;1999.90;999.90;;;3.60;1.00;;;;;;4930349;29;20132;-82
2023/03/28 00:18:59;;;;;;;1999.90;999.90;;;2.30;1.00;;;;;;4922499;29;20143;-82
2023/03/28 00:21:34;;;;;;;1999.90;999.90;;;2.50;1.00;;;;;;4949642;29;20050;-84
2023/03/28 00:24:02;;;;;;;1999.90;999.90;;;2.10;1.00;;;;;;4952676;29;20043;-81
2023/03/28 00:26:34;;;;;;;1999.90;999.90;;;4.60;99.90;;;;;;4953250;28;20047;-82
2023/03/28 00:29:02;;;;;;;1999.90;999.90;;;2.50;1.00;;;;;;4945258;28;20055;-81
2023/03/28 00:31:29;;;;;;;1999.90;999.90;;;3.50;1.00;;;;;;4934705;29;20122;-81
2023/03/28 00:33:56;;;;;;;1999.90;999.90;;;2.40;1.00;;;;;;4934791;29;20076;-81
2023/03/28 00:36:25;;;;;;;1999.90;999.90;;;3.50;1.00;;;;;;4946722;29;20043;-82
2023/03/28 00:39:00;;;;;;;1999.90;999.90;;;2.10;1.00;;;;;;4946145;28;20035;-82
2023/03/28 00:41:29;;;;;;;1999.90;999.90;;;1.90;1.00;;;;;;4952952;28;20078;-82
2023/03/28 00:43:56;;;;;;;1999.90;999.90;;;1.80;1.00;;;;;;4948815;28;20055;-82
2023/03/28 00:46:34;;;;;;;1999.90;999.90;;;4.30;1.00;;;;;;4945782;29;20058;-84
2023/03/28 00:49:09;;;;;;;1999.90;999.90;;;2.90;1.00;;;;;;4942050;29;20151;-82
2023/03/28 00:51:43;;;;;;;1999.90;999.90;;;4.70;1.00;;;;;;4934743;29;20114;-82
2023/03/28 00:54:14;;;;;;;1999.90;999.90;;;4.50;1.00;;;;;;4953896;28;20043;-82
2023/03/28 00:56:44;;;;;;;1999.90;999.90;;;4.80;1.00;;;;;;4952878;28;20550;-82
2023/03/28 00:59:15;;;;;;;1999.90;999.90;;;2.70;1.00;;;;;;4934552;28;20573;-85
2023/03/28 01:01:42;;;;;;;1999.90;999.90;;;1.80;1.00;;;;;;4923976;29;20358;-82
2023/03/28 01:04:08;;;;;;;1999.90;999.90;;;4.00;1.00;;;;;;4935283;28;20051;-84
2023/03/28 01:06:39;;;;;;;1999.90;999.90;;;3.30;1.00;;;;;;4935616;29;20064;-82
2023/03/28 01:09:07;;;;;;;1999.90;999.90;;;3.10;1.00;;;;;;4921991;29;20108;-84
2023/03/28 01:11:39;;;;;;;1999.90;999.90;;;2.80;1.00;;;;;;4932384;29;20050;-81
2023/03/28 01:14:06;;;;;;;1999.90;999.90;;;3.50;1.00;;;;;;4951990;28;20043;-82
2023/03/28 01:16:32;;;;;;;1999.90;999.90;;;2.60;1.00;;;;;;4955811;29;20087;-82
2023/03/28 01:19:02;;;;;;;1999.90;999.90;;;2.10;1.00;;;;;;4952617;28;20089;-82
2023/03/28 01:21:36;;;;;;;1999.90;999.90;;;4.50;1.00;;;;;;4925341;28;20158;-84
2023/03/28 01:24:26;;;;;;;1999.90;999.90;;;2.20;1.00;;;;;;4931752;29;20047;-81
2023/03/28 01:26:57;;;;;;;1999.90;999.90;;;1.60;1.00;;;;;;4925122;29;20051;-81
2023/03/28 01:29:38;;;;;;;1999.90;999.90;;;3.40;1.00;;;;;;4932463;29;20067;-82
2023/03/28 01:32:34;;;;;;;1999.90;999.90;;;2.20;1.00;;;;;;4938325;29;20110;-81
2023/03/28 01:35:28;;;;;;;1999.90;999.90;;;1.10;1.00;;;;;;4956438;28;20043;-82
2023/03/28 01:38:23;;;;;;;1999.90;999.90;;;1.50;1.00;;;;;;4942999;28;20102;-81
2023/03/28 01:41:15;;;;;;;1999.90;999.90;;;2.20;1.00;;;;;;4928921;29;20043;-81
2023/03/28 01:43:51;;;;;;;1999.90;999.90;;;2.00;1.00;;;;;;4950785;29;20575;-81
2023/03/28 01:46:17;;;;;;;1999.90;999.90;;;;;;;;;;4955282;29;20047;-82
2023/03/28 01:48:55;;;;;;;1999.90;999.90;;;1.90;1.00;;;;;;4956662;29;20125;-82
2023/03/28 01:51:33;;;;;;;1999.90;999.90;;;3.00;42.90;;;;;;4946695;29;20039;-82
2023/03/28 01:54:23;;;;;;;1999.90;999.90;;;3.00;70.00;;;;;;4949418;29;20054;-82
2023/03/28 01:56:50;;;;;;;1999.90;999.90;;;;;;;;;;4919364;29;20079;-82
2023/03/28 01:59:16;;;;;;;1999.90;999.90;;;;;;;;;;4935811;29;20484;-82
2023/03/28 02:01:58;;;;;;;1999.90;999.90;;;2.00;81.10;;;;;;4936769;29;20138;-83
2023/03/28 02:04:25;;;;;;;1999.90;999.90;;;2.90;99.90;;;;;;4956350;28;20039;-81
2023/03/28 02:06:52;;;;;;;1999.90;999.90;;;1.40;99.90;;;;;;4955168;28;20051;-82
2023/03/28 02:09:22;;;;;;;1999.90;999.90;;;2.10;99.90;;;;;;4943727;28;20092;-82
2023/03/28 02:11:51;;;;;;;1999.90;999.90;;;1.40;99.90;;;;;;4924004;29;20122;-83
2023/03/28 02:14:21;;;;;;;1999.90;999.90;;;2.10;99.90;;;;;;4936067;29;20080;-85
2023/03/28 02:16:52;;;;;;;1999.90;999.90;;;4.80;99.90;;;;;;4935165;29;20126;-82
2023/03/28 02:19:21;;;;;;;1999.90;999.90;;;1.90;99.90;;;;;;4928032;29;20048;-83
2023/03/28 02:21:52;;;;;;;1999.90;999.90;;;3.20;99.90;;;;;;4933751;29;20051;-82
2023/03/28 02:24:18;;;;;;;1999.90;999.90;;;2.90;99.90;;;;;;4953881;28;20126;-82
2023/03/28 02:26:44;;;;;;;1999.90;999.90;;;1.80;99.90;;;;;;4945543;29;20103;-83
2023/03/28 02:29:11;;;;;;;1999.90;999.90;;;1.90;99.90;;;;;;4925042;29;20088;-79
2023/03/28 02:31:37;;;;;;;1999.90;999.90;;;2.70;99.90;;;;;;4922760;29;20083;-83
2023/03/28 02:34:03;;;;;;;1999.90;999.90;;;2.30;99.90;;;;;;4944767;29;20051;-82
2023/03/28 02:36:50;;;;;;;1999.90;999.90;;;1.50;99.90;;;;;;4955192;29;20047;-79
2023/03/28 02:39:28;;;;;;;1999.90;999.90;;;2.00;99.90;;;;;;4955088;29;20505;-82
2023/03/28 02:42:31;;;;;;;1999.90;999.90;;;3.60;99.90;;;;;;4954723;28;20130;-81
2023/03/28 02:44:59;;;;;;;1999.90;999.90;;;3.40;99.90;;;;;;4946428;29;20039;-81
2023/03/28 02:47:46;;;;;;;1999.90;999.90;;;1.10;99.90;;;;;;4951631;29;20496;-82
2023/03/28 02:51:03;;;;;;;1999.90;999.90;;;1.80;1.00;;;;;;4941201;29;20118;-82
2023/03/28 02:53:58;;;;;;;1999.90;999.90;;;2.10;99.90;;;;;;4936312;29;20047;-82
2023/03/28 02:56:26;;;;;;;1999.90;999.90;;;2.10;1.00;;;;;;4953372;29;20054;-83
2023/03/28 02:59:03;;;;;;;1999.90;999.90;;;1.70;1.00;;;;;;4954617;29;20050;-81
2023/03/28 03:01:29;;;;;;;1999.90;999.90;;;4.10;99.90;;;;;;4937100;29;20366;-82
2023/03/28 03:03:55;;;;;;;1999.90;999.90;;;4.40;99.90;;;;;;4936998;29;20043;-82
2023/03/28 03:06:21;;;;;;;1999.90;999.90;;;3.80;99.90;;;;;;4946947;28;20060;-82
2023/03/28 03:08:47;;;;;;;1999.90;999.90;;;3.60;99.90;;;;;;4934987;29;20110;-81
2023/03/28 03:11:12;;;;;;;1999.90;999.90;;;2.00;99.90;;;;;;4915611;29;20131;-81
2023/03/28 03:13:38;;;;;;;1999.90;999.90;;;4.20;99.90;;;;;;4919080;29;20383;-82
2023/03/28 03:16:04;;;;;;;1999.90;999.90;;;2.80;99.90;;;;;;4952387;28;20039;-82
2023/03/28 03:18:31;;;;;;;1999.90;999.90;;;3.20;99.90;;;;;;4948274;28;20358;-82
2023/03/28 03:20:57;;;;;;;1999.90;999.90;;;2.60;99.90;;;;;;4933636;29;20118;-82
2023/03/28 03:23:22;;;;;;;1999.90;999.90;;;2.10;99.90;;;;;;4927253;29;20095;-82
2023/03/28 03:25:49;;;;;;;1999.90;999.90;;;3.50;99.90;;;;;;4941519;29;20055;-82
2023/03/28 03:28:15;;;;;;;1999.90;999.90;;;2.00;99.90;;;;;;4953431;29;20134;-83
2023/03/28 03:30:42;;;;;;;1999.90;999.90;;;2.00;1.00;;;;;;4954459;28;20039;-82
2023/03/28 03:33:09;;;;;;;1999.90;999.90;;;1.60;99.90;;;;;;4928642;28;20036;-82
2023/03/28 03:35:36;;;;;;;1999.90;999.90;;;3.80;99.90;;;;;;4935347;29;20514;-83
2023/03/28 03:38:03;;;;;;;1999.90;999.90;;;2.10;1.00;;;;;;4948209;29;20047;-83
2023/03/28 03:40:29;;;;;;;1999.90;999.90;;;;;;;;;;4946353;29;20059;-82
2023/03/28 03:42:54;;;;;;;1999.90;999.90;;;1.80;99.90;;;;;;4934698;29;20556;-82
2023/03/28 03:45:21;;;;;;;1999.90;999.90;;;2.10;1.00;;;;;;4935010;29;20119;-82
2023/03/28 03:47:47;;;;;;;1999.90;999.90;;;;;;;;;;4927506;28;20079;-82
2023/03/28 03:50:12;;;;;;;1999.90;999.90;;;2.10;1.00;;;;;;4924892;29;20585;-82
2023/03/28 03:52:38;;;;;;;1999.90;999.90;;;3.20;1.00;;;;;;4923145;29;20044;-80
2023/03/28 03:55:05;;;;;;;1999.90;999.90;;;2.20;99.90;;;;;;4916458;29;20127;-86
2023/03/28 03:57:31;;;;;;;1999.90;999.90;;;1.80;99.90;;;;;;4944697;29;20118;-82
2023/03/28 03:59:56;;;;;;;1999.90;999.90;;;0.40;99.90;;;;;;4934892;29;20130;-82
2023/03/28 04:02:22;;;;;;;1999.90;999.90;;;3.50;99.90;;;;;;4947787;29;20127;-82
2023/03/28 04:04:48;;;;;;;1999.90;999.90;;;3.90;99.90;;;;;;4919563;29;20040;-82
2023/03/28 04:07:14;;;;;;;1999.90;999.90;;;1.30;99.90;;;;;;4929809;29;20098;-83
2023/03/28 04:09:40;;;;;;;1999.90;999.90;;;1.50;99.90;;;;;;4923577;29;20043;-82
2023/03/28 04:12:07;;;;;;;1999.90;999.90;;;1.50;99.90;;;;;;4932711;29;20039;-82
2023/03/28 04:14:33;;;;;;;1999.90;999.90;;;;;;;;;;4932369;29;20513;-82
2023/03/28 04:17:00;;;;;;;1999.90;999.90;;;1.60;99.90;;;;;;4939922;29;20460;-83
2023/03/28 04:19:26;;;;;;;1999.90;999.90;;;1.70;99.90;;;;;;4952283;28;20126;-84
2023/03/28 04:21:55;;;;;;;1999.90;999.90;;;3.20;99.90;;;;;;4934601;29;20123;-82
2023/03/28 04:24:23;;;;;;;1999.90;999.90;;;0.80;99.90;;;;;;4942768;29;20056;-83
2023/03/28 04:26:54;;;;;;;1999.90;999.90;;;3.90;99.90;;;;;;4927721;29;20050;-82
2023/03/28 04:29:29;;;;;;;1999.90;999.90;;;3.40;99.90;;;;;;4929216;29;20131;-81
2023/03/28 04:31:58;;;;;;;1999.90;999.90;;;0.90;99.90;;;;;;4931325;29;20052;-82
2023/03/28 04:34:28;;;;;;;1999.90;999.90;;;1.90;99.90;;;;;;4926389;29;20098;-81
2023/03/28 04:37:01;;;;;;;1999.90;999.90;;;2.70;99.90;;;;;;4933104;29;20122;-81
2023/03/28 04:39:32;;;;;;;1999.90;999.90;;;1.60;99.90;;;;;;4930886;29;20061;-83
2023/03/28 04:42:00;;;;;;;1999.90;999.90;;;3.30;99.90;;;;;;4929017;29;20047;-81
2023/03/28 04:44:30;;;;;;;1999.90;999.90;;;3.50;99.90;;;;;;4931169;29;20115;-82
2023/03/28 04:46:57;;;;;;;1999.90;999.90;;;1.40;99.90;;;;;;4929559;29;20043;-84
2023/03/28 04:49:23;;;;;;;1999.90;999.90;;;;;;;;;;4926387;29;20139;-81
2023/03/28 04:51:51;;;;;;;1999.90;999.90;;;0.90;99.90;;;;;;4936218;29;20048;-83
2023/03/28 04:54:17;;;;;;;1999.90;999.90;;;3.50;99.90;;;;;;4932623;29;20051;-83
2023/03/28 04:56:49;;;;;;;1999.90;999.90;;;;;;;;;;4935533;29;20051;-81
2023/03/28 04:59:16;;;;;;;1999.90;999.90;;;1.00;99.90;;;;;;4939113;29;20051;-83
2023/03/28 05:01:47;;;;;;;1999.90;999.90;;;;;;;;;;4935196;29;20101;-85
2023/03/28 05:04:16;;;;;;;1999.90;999.90;;;1.80;99.90;;;;;;4930175;29;20078;-79
2023/03/28 05:06:46;;;;;;;1999.90;999.90;;;2.20;99.90;;;;;;4922747;28;20584;-83
2023/03/28 05:09:13;;;;;;;1999.90;999.90;;;0.00;81.90;;;;;;4933153;29;20063;-80
2023/03/28 05:11:39;;;;;;;1999.90;999.90;;;1.40;7.60;;;;;;4933262;28;20432;-80
2023/03/28 05:14:05;;;;;;;1999.90;999.90;;;1.90;1.00;;;;;;4927315;29;20047;-83
2023/03/28 05:16:32;;;;;;;1999.90;999.90;;;;;;;;;;4933182;29;20043;-79
2023/03/28 05:18:57;;;;;;;1999.90;999.90;;;4.10;1.00;;;;;;4938315;29;20048;-79
2023/03/28 05:21:23;;;;;;;1999.90;999.90;;;1.60;1.00;;;;;;4938888;29;20095;-81
2023/03/28 05:23:49;;;;;;;1999.90;999.90;;;2.30;1.00;;;;;;4933905;28;20046;-83
2023/03/28 05:26:15;;;;;;;1999.90;999.90;;;2.20;99.90;;;;;;4937732;28;20071;-83
2023/03/28 05:28:41;;;;;;;1999.90;999.90;;;1.00;99.90;;;;;;4947303;28;20416;-84
2023/03/28 05:31:07;;;;;;;1999.90;999.90;;;2.60;99.90;;;;;;4915923;29;20042;-81
2023/03/28 05:33:33;;;;;;;1999.90;999.90;;;2.10;99.90;;;;;;4930299;28;20048;-82
2023/03/28 05:35:59;;;;;;;1999.90;999.90;;;2.00;99.90;;;;;;4936979;29;20130;-82
2023/03/28 05:38:25;;;;;;;1999.90;999.90;;;0.80;14.30;;;;;;4939176;29;20131;-81
2023/03/28 05:40:52;;;;;;;1999.90;999.90;;;2.20;87.30;;;;;;4941785;29;20043;-82
2023/03/28 05:43:18;;;;;;;1999.90;999.90;;;2.00;1.00;;;;;;4937219;29;20047;-82
2023/03/28 05:45:45;;;;;;;1999.90;999.90;;;2.00;1.00;;;;;;4939470;29;20050;-83
2023/03/28 05:48:11;;;;;;;1999.90;999.90;;;2.00;1.00;;;;;;4940123;29;20099;-86
2023/03/28 05:50:37;;;;;;;1999.90;999.90;;;1.90;1.00;;;;;;4940509;29;20432;-83
2023/03/28 05:53:03;;;;;;;1999.90;999.90;;;2.50;1.00;;;;;;4933667;28;20040;-84
2023/03/28 05:55:29;;;;;;;1999.90;999.90;;;3.10;99.90;;;;;;4903653;29;20040;-83
2023/03/28 05:57:54;;;;;;;1999.90;999.90;;;3.10;99.90;;;;;;4915353;29;20500;-85
2023/03/28 06:00:22;;;;;;;1999.90;999.90;;;2.30;47.90;;;;;;4942722;28;20118;-82
2023/03/28 06:02:50;;;;;;;1999.90;999.90;;;;;;;;;;4934743;29;20390;-83
2023/03/28 06:05:17;;;;;;;1999.90;999.90;;;1.00;99.90;;;;;;4952334;28;20051;-82
2023/03/28 06:07:43;;;;;;;1999.90;999.90;;;2.40;1.00;;;;;;4954586;28;20520;-83
2023/03/28 06:10:11;;;;;;;1999.90;999.90;;;2.50;99.90;;;;;;4942800;29;20503;-82
2023/03/28 06:12:36;;;;;;;1999.90;999.90;;;1.60;1.00;;;;;;4935874;29;20048;-83
2023/03/28 06:15:04;;;;;;;1999.90;999.90;;;2.60;1.00;;;;;;4949345;29;20057;-89
2023/03/28 06:17:30;;;;;;;1999.90;999.90;;;2.90;99.90;;;;;;4932560;29;20052;-88
2023/03/28 06:19:56;;;;;;;1999.90;999.90;;;2.10;99.90;;;;;;4939291;29;20051;-82
2023/03/28 06:22:22;;;;;;;1999.90;999.90;;;;;;;;;;4932353;28;20366;-88
2023/03/28 06:24:48;;;;;;;1999.90;960.03;;;;;;;;;;4925896;29;20071;-85
2023/03/28 06:27:14;;;;;;;1999.90;999.90;;;;;;;;;;4942339;29;20115;-82
2023/03/28 06:29:40;;;;;;;1999.90;999.90;;;3.90;99.90;;;;;;4932497;29;20046;-83
2023/03/28 06:32:06;;;;;;;1999.90;999.90;;;2.50;99.90;;;;;;4937695;29;20074;-82
2023/03/28 06:34:32;;;;;;;1999.90;999.90;;;3.80;99.90;;;;;;4941905;28;20063;-84
2023/03/28 06:36:59;;;;;;;1999.90;982.97;;;3.30;1.00;;;;;;4930169;29;20123;-84
2023/03/28 06:39:25;;;;;;;1999.90;999.90;;;3.50;1.00;;;;;;4953078;28;20130;-88
2023/03/28 06:41:50;;;;;;;1999.90;782.40;;;4.00;1.00;;;;;;4951724;29;20130;-82
2023/03/28 06:44:16;;;;;;;1999.90;958.72;;;6.20;99.90;;;;;;4949532;29;20220;-82
2023/03/28 06:46:44;;;;;;;1999.90;604.90;;;3.90;99.90;;;;;;4942368;29;20078;-82
2023/03/28 06:49:09;;;;;;;;;;;3.90;99.90;;;;;;4954934;29;20492;-83
2023/03/28 06:51:35;;;;;;;1999.90;956.00;;;4.70;99.90;;;;;;4948758;29;19926;-89
2023/03/28 06:54:01;;;;;;;1999.90;710.72;;;4.50;99.90;;;;;;4941845;29;20043;-81
2023/03/28 06:56:27;;;;;;;1999.90;999.90;;;6.70;99.90;;;;;;4945047;29;20105;-82
2023/03/28 06:58:53;;;;;;;1999.90;999.90;;;;;;;;;;4945636;28;20126;-82
2023/03/28 07:01:19;;;;;;;1999.90;999.90;;;2.60;34.90;;;;;;4943464;29;20047;-82
2023/03/28 07:03:45;;;;;;;1999.90;999.90;;;;;;;;;;4946714;29;20066;-82
2023/03/28 07:06:11;;;;;;;1999.90;999.90;;;4.30;1.00;;;;;;4953845;29;20099;-82
2023/03/28 07:08:37;;;;;;;1999.90;825.30;;;4.20;77.90;;;;;;4938664;28;20090;-82
2023/03/28 07:11:03;;;;;;;1999.90;999.90;;;;;;;;;;4934950;29;20051;-83
2023/03/28 07:13:29;;;;;;;1999.90;999.90;;;4.20;1.00;;;;;;4933107;29;20047;-84
2023/03/28 07:16:06;;;;;;;1999.90;999.90;;;4.80;1.00;;;;;;4950196;29;20409;-82
2023/03/28 07:18:32;;;;;;;1999.90;999.90;;;4.80;99.90;;;;;;4943814;28;20043;-82
2023/03/28 07:20:58;;;;;;;1999.90;999.90;;;4.90;99.90;;;;;;4949965;29;20391;-82
2023/03/28 07:23:23;;;;;;;1999.90;840.00;;;4.90;99.90;;;;;;4937627;29;20047;-81
2023/03/28 07:25:49;;;;;;;1999.90;999.90;;;5.40;99.90;;;;;;4933579;28;20174;-82
2023/03/28 07:28:15;;;;;;;1999.90;999.90;;;6.40;32.60;;;;;;4945571;28;20060;-83
2023/03/28 07:30:41;;;;;;;1999.90;999.90;;;7.60;2.80;;;;;;4930939;28;20408;-87
2023/03/28 07:33:07;;;;;;;1505.75;534.03;;;;;;;;;;4934364;29;20050;-82
2023/03/28 07:35:33;;;;;;;1999.90;999.90;;;;;;;;;;4930114;29;20172;-82
2023/03/28 07:37:59;;;;;;;1999.90;999.90;;;6.60;1.00;;;;;;4944061;29;20047;-82
2023/03/28 07:40:25;;;;;;;1999.90;999.90;;;8.90;1.00;;;;;;4940967;29;20496;-82
2023/03/28 07:42:51;;;;;;;1999.90;999.90;;;6.80;99.90;;;;;;4916704;29;20048;-83
2023/03/28 07:45:19;;;;;;;1999.90;999.90;;;8.20;1.00;;;;;;4935575;29;20047;-83
2023/03/28 07:47:45;;;;;;;1999.90;999.90;;;6.90;99.90;;;;;;4948402;29;20527;-82
2023/03/28 07:50:11;;;;;;;1999.90;289.00;;;4.80;1.00;;;;;;4944925;29;20047;-82
2023/03/28 07:52:39;;;;;;;1999.90;999.90;;;6.10;1.00;;;;;;4936844;29;20051;-83
2023/03/28 07:55:06;;;;;;;1999.90;990.70;;;7.30;99.90;;;;;;4934412;29;20059;-83
2023/03/28 07:57:31;;;;;;;1999.90;990.45;;;6.40;99.90;;;;;;4951049;29;20062;-82
2023/03/28 07:59:57;;;;;;;1999.90;999.90;;;7.70;99.90;;;;;;4940729;29;20052;-86
2023/03/28 08:02:23;;;;;;;1999.90;999.90;;;6.80;99.90;;;;;;4916123;29;20044;-81
2023/03/28 08:04:48;;;;;;;1999.90;999.90;;;8.70;99.90;;;;;;4928231;29;20712;-82
2023/03/28 08:07:14;;;;;;;1999.90;999.90;;;7.80;99.90;;;;;;4964830;28;20062;-82
2023/03/28 08:09:40;;;;;;;1999.90;718.10;;;8.50;99.90;;;;;;4946116;29;20051;-82
2023/03/28 08:12:06;;;;;;;1999.90;597.50;;;6.70;99.90;;;;;;4947102;29;20073;-82
2023/03/28 08:14:31;;;;;;;1999.90;803.90;;;7.80;99.90;;;;;;4941363;29;20114;-83
2023/03/28 08:16:57;;;;;;;1999.90;790.58;;;8.20;99.90;;;;;;4928372;29;20047;-81
2023/03/28 08:19:23;;;;;;;1999.90;999.90;;;8.60;99.90;;;;;;4939664;28;20079;-82
2023/03/28 08:21:49;;;;;;;1999.90;999.90;;;6.30;99.90;;;;;;4940294;29;20118;-83
2023/03/28 08:24:14;;;;;;;1999.90;591.10;;;7.90;99.90;;;;;;4940265;29;20044;-82
2023/03/28 08:26:41;;;;;;;1999.90;999.90;;;8.30;99.90;;;;;;4939330;29;20051;-82
2023/03/28 08:29:06;;;;;;;1999.90;999.90;;;7.40;99.90;;;;;;4938034;29;20052;-81
2023/03/28 08:31:32;;;;;;;1999.90;956.80;;;7.80;99.90;;;;;;4939663;29;20047;-81
2023/03/28 08:33:58;;;;;;;1999.90;999.90;;;7.40;99.90;;;;;;4951008;29;20050;-81
2023/03/28 08:36:25;;;;;;;1999.90;999.90;;;8.30;99.90;;;;;;4953468;28;20047;-82
2023/03/28 08:38:53;;;;;;;1999.90;811.25;;;;;;;;;;4941514;28;20054;-82
2023/03/28 08:41:39;;;;;;;;;;;8.80;99.90;;;;;;4952101;28;20062;-83
2023/03/28 08:44:41;;;;;;;1999.90;521.22;;;11.20;99.90;;;;;;4955001;29;19941;-83
2023/03/28 08:47:26;;;;;;;1999.90;999.90;;;9.70;99.90;;;;;;4941484;29;20551;-81
2023/03/28 08:50:06;;;;;;;1999.90;999.90;;;9.60;99.90;;;;;;4932044;29;20411;-82
2023/03/28 08:52:32;;;;;;;1999.90;685.75;;;;;;;;;;4947517;29;20107;-82
2023/03/28 08:55:38;;;;;;;1999.90;779.15;;;9.80;99.90;;;;;;4945895;29;20052;-84
2023/03/28 08:58:09;;;;;;;1999.90;953.95;;;10.70;99.90;;;;;;4954695;28;20134;-82
2023/03/28 09:00:38;;;;;;;1999.90;654.30;;;11.00;99.90;;;;;;4933979;29;20051;-82
2023/03/28 09:03:12;;;;;;;1999.90;999.90;;;11.10;99.90;;;;;;4929956;29;20388;-82
2023/03/28 09:05:53;;;;;;;1999.90;470.70;;;12.40;99.90;;;;;;4946751;29;20049;-83
2023/03/28 09:08:45;;;;;;;1999.90;999.90;;;11.30;98.30;;;;;;4946619;28;20138;-81
2023/03/28 09:11:32;;;;;;;1999.90;999.90;;;11.20;98.80;;;;;;4930691;29;20040;-82
2023/03/28 09:14:16;;;;;;;1999.90;999.90;;;10.70;91.30;;;;;;4938236;29;20323;-82
2023/03/28 09:16:49;;;;;;;1999.90;999.90;;;10.60;91.50;;;;;;4956133;29;20122;-82
2023/03/28 09:19:44;;;;;;;1999.90;944.60;;;10.40;94.90;;;;;;4951628;28;20057;-82
2023/03/28 09:22:39;;;;;;;1999.90;999.90;;;9.60;93.10;;;;;;4932345;29;20043;-81
2023/03/28 09:25:34;;;;;;;1999.90;999.90;;;9.10;95.10;;;;;;4918677;29;20047;-82
2023/03/28 09:28:17;;;;;;;1999.90;999.90;;;9.60;97.00;;;;;;4919659;29;21747;-88
2023/03/28 09:30:47;;;;;;;1999.90;999.90;;;9.50;99.90;;;;;;4935296;29;20118;-82
2023/03/28 09:33:17;;;;;;;1999.90;945.30;;;10.50;91.90;;;;;;4927494;29;20046;-84
2023/03/28 09:35:44;;;;;;;1999.90;999.90;;;12.30;91.40;;;;;;4941419;28;20039;-80
2023/03/28 09:38:37;;;;;;;1999.90;999.90;;;10.70;87.30;;;;;;4950689;28;20059;-82
2023/03/28 09:41:13;;;;;;;1999.90;993.05;;;11.50;88.40;;;;;;4937960;29;20063;-80
2023/03/28 09:43:46;;;;;;;1999.90;999.90;;;12.10;86.00;;;;;;4929257;29;20110;-80
2023/03/28 09:46:26;;;;;;;1999.90;999.90;;;12.30;81.70;;;;;;4944346;29;20046;-80
2023/03/28 09:48:54;;;;;;;1999.90;922.35;;;11.60;75.00;;;;;;4951993;28;20051;-79
2023/03/28 09:51:20;;;;;;;1999.90;999.90;;;11.30;82.90;;;;;;4950739;29;20127;-79
2023/03/28 09:53:45;;;;;;;1999.90;999.90;;;10.90;77.60;;;;;;4933472;29;20131;-80
2023/03/28 09:56:23;;;;;;;1999.90;999.33;;;10.60;75.90;;;;;;4927809;29;20063;-80
2023/03/28 09:59:01;;;;;;;1999.90;999.90;;;10.00;81.70;;;;;;4936793;29;20126;-81
2023/03/28 10:01:45;;;;;;;1999.90;999.90;;;10.60;62.40;;;;;;4941822;29;20365;-81
2023/03/28 10:04:17;;;;;;;1999.90;999.90;;;10.80;69.50;;;;;;4945605;28;20103;-82
2023/03/28 10:06:45;;;;;;;1999.90;999.90;;;12.60;68.90;;;;;;4925732;29;20130;-83
2023/03/28 10:09:19;;;;;;;1999.90;999.90;;;12.40;69.20;;;;;;4936489;29;20047;-81
2023/03/28 10:12:07;;;;;;;1999.90;999.90;;;12.90;59.80;;;;;;4964164;28;20043;-81
2023/03/28 10:14:35;;;;;;;1999.90;999.90;;;12.10;54.70;;;;;;4948487;29;20106;-87
2023/03/28 10:17:12;;;;;;;1999.90;999.90;;;11.90;59.10;;;;;;4948455;29;20048;-81
2023/03/28 10:19:44;;;;;;;1999.90;999.90;;;10.70;99.50;;;;;;4935614;29;20053;-85
2023/03/28 10:22:23;;;;;;;1999.90;999.90;;;10.40;64.60;;;;;;4952692;29;20478;-80
2023/03/28 10:24:50;;;;;;;1999.90;999.90;;;10.40;68.20;;;;;;4939076;28;20036;-81
2023/03/28 10:27:24;;;;;;;1999.90;999.90;;;10.50;63.70;;;;;;4942385;29;20057;-79
2023/03/28 10:29:55;;;;;;;1999.90;999.90;;;10.70;61.70;;;;;;4938147;29;20046;-86
2023/03/28 10:32:29;;;;;;;1999.90;999.90;;;11.20;62.70;;;;;;4934766;29;20042;-82
2023/03/28 10:35:08;;;;;;;1999.90;999.90;;;12.50;75.00;;;;;;4938252;28;20121;-84
2023/03/28 10:37:35;;;;;;;1999.90;999.90;;;12.90;57.80;;;;;;4945226;29;20126;-80
2023/03/28 10:40:21;;;;;;;1999.90;999.90;;;13.20;58.90;;;;;;4947797;28;20050;-84
2023/03/28 10:42:50;;;;;;;1999.90;999.90;;;12.10;45.10;;;;;;4947236;28;20047;-79
2023/03/28 10:45:37;;;;;;;1999.90;999.90;;;11.60;44.90;;;;;;4932637;29;20099;-79
2023/03/28 10:48:17;;;;;;;1999.90;999.90;;;11.60;45.90;;;;;;4955029;28;20061;-80
2023/03/28 10:50:57;;;;;;;1999.90;999.90;;;11.80;43.30;;;;;;4944362;28;20047;-79
2023/03/28 10:54:04;;;;;;;1999.90;999.90;;;12.00;43.60;;;;;;4954439;28;20047;-79
2023/03/28 10:56:41;;;;;;;1999.90;999.90;;;11.60;43.00;;;;;;4935070;28;20043;-80
2023/03/28 10:59:34;;;;;;;1999.90;999.90;;;11.30;44.20;;;;;;4955219;28;20039;-85
2023/03/28 11:02:16;;;;;;;1999.90;999.90;;;11.50;44.20;;;;;;4949212;29;20039;-81
2023/03/28 11:04:53;;;;;;;1999.90;999.90;;;11.40;49.00;;;;;;4946452;28;20124;-81
2023/03/28 11:07:42;;;;;;;1999.90;999.90;;;11.10;48.90;;;;;;4932809;29;20056;-80
2023/03/28 11:10:11;;;;;;;1999.90;999.90;;;11.10;52.50;;;;;;4928614;29;20069;-80
2023/03/28 11:12:55;;;;;;;1999.90;999.90;;;11.00;46.10;;;;;;4932481;29;20047;-80
2023/03/28 11:15:45;;;;;;;1999.90;999.90;;;11.10;48.20;;;;;;4940589;29;20036;-80
2023/03/28 11:18:30;;;;;;;1999.90;999.90;;;10.80;43.60;;;;;;4935890;29;20050;-80
2023/03/28 11:21:06;;;;;;;1999.90;999.90;;;10.70;47.20;;;;;;4945742;29;20090;-83
2023/03/28 11:23:52;;;;;;;1999.90;999.90;;;11.00;59.60;;;;;;4936289;29;20054;-81
2023/03/28 11:26:24;;;;;;;1999.90;999.90;;;11.10;43.30;;;;;;4943320;28;20058;-80
2023/03/28 11:29:07;;;;;;;1999.90;999.90;;;11.80;46.80;;;;;;4931758;28;20048;-80
2023/03/28 11:31:44;;;;;;;1999.90;999.90;;;12.40;38.90;;;;;;4937505;29;20468;-80
2023/03/28 11:34:26;;;;;;;1999.90;999.90;;;13.20;40.20;;;;;;4946292;29;20380;-81
2023/03/28 11:36:58;;;;;;;1999.90;999.90;;;13.50;42.80;;;;;;4931604;29;20036;-82
2023/03/28 11:39:53;;;;;;;1999.90;999.90;;;13.70;30.80;;;;;;4934499;29;20095;-81
2023/03/28 11:42:35;;;;;;;1999.90;999.90;;;13.50;21.90;;;;;;4946950;29;20384;-80
2023/03/28 11:45:19;;;;;;;1999.90;999.90;;;13.40;22.10;;;;;;4947782;28;20035;-83
2023/03/28 11:48:04;;;;;;;1999.90;999.90;;;13.00;22.90;;;;;;4941008;29;20050;-83
2023/03/28 11:51:09;;;;;;;1999.90;999.90;;;12.50;28.50;;;;;;4936344;29;20122;-81
2023/03/28 11:53:57;;;;;;;1999.90;999.90;;;11.60;29.00;;;;;;4945359;28;20051;-83
2023/03/28 11:56:45;;;;;;;1999.90;999.90;;;11.10;34.00;;;;;;4943999;28;20047;-81
2023/03/28 11:59:50;;;;;;;1999.90;999.90;;;11.30;36.40;;;;;;4927923;29;20089;-81
2023/03/28 12:02:29;;;;;;;1999.90;999.90;;;11.60;37.40;;;;;;4918249;28;20138;-81
2023/03/28 12:05:17;;;;;;;1999.90;999.90;;;11.80;32.60;;;;;;4950696;29;20069;-85
2023/03/28 12:07:58;;;;;;;1999.90;999.90;;;11.90;29.30;;;;;;4938564;29;20157;-80
2023/03/28 12:10:35;;;;;;;1999.90;999.90;;;11.90;33.70;;;;;;4927404;28;20044;-85
2023/03/28 12:13:36;;;;;;;1999.90;999.90;;;12.40;31.30;;;;;;4911282;29;20051;-81
2023/03/28 12:16:19;;;;;;;1999.90;999.90;;;12.10;29.30;;;;;;4929742;29;20147;-89
2023/03/28 12:18:54;;;;;;;1999.90;999.90;;;11.90;39.10;;;;;;4932391;29;20142;-81
2023/03/28 12:21:29;;;;;;;1999.90;999.90;;;11.60;30.30;;;;;;4944003;29;20106;-82
2023/03/28 12:24:19;;;;;;;1999.90;999.90;;;11.30;26.50;;;;;;4916675;29;20370;-82
2023/03/28 12:27:18;;;;;;;1999.90;999.90;;;11.40;29.70;;;;;;4950554;28;20051;-80
2023/03/28 12:29:52;;;;;;;1999.90;999.90;;;11.10;27.00;;;;;;4949429;29;20054;-81
2023/03/28 12:32:25;;;;;;;1999.90;999.90;;;11.00;26.20;;;;;;4928697;29;20118;-83
2023/03/28 12:35:03;;;;;;;1999.90;999.90;;;11.20;31.60;;;;;;4934074;29;20047;-81
2023/03/28 12:37:36;;;;;;;1999.90;999.90;;;10.90;34.10;;;;;;4944442;29;20055;-80
2023/03/28 12:40:18;;;;;;;1999.90;999.90;;;10.80;34.60;;;;;;4949145;28;20047;-85
2023/03/28 12:42:46;;;;;;;1999.90;999.90;;;10.60;38.50;;;;;;4920992;29;20139;-81